Maersk Wolfsburg — VRGP3 — position and weather

sailwx.info

Track history (hours):
 
Tides and Currents Weather Stations Pressure Air Temp Water Temp Dewpoint Dewpoint Depression Visibility Wind Speed Wind Dir Waves Ship Positions

Maersk Wolfsburg

Last reported at 2017-Nov-19 09:36 UTC. Time now 2017-Nov-19 18:19 UTC.
Position N 25°37' W 079°32'.

Length 175 m; draft 8.6 m.

Type: Ship (hazmat cat A). MMSI: 477742500.

Date/timePositionNaut miles runAvg speedWind from/ knotsBaromVisibWave heightAir tempDewpointWater temp
2017-Nov-19 09:36N 25°37' W 079°32'217.2
2017-Nov-19 09:30N 25°39' W 079°32'815.6
2017-Nov-19 09:00N 25°45' W 079°37'917.4
2017-Nov-19 08:30N 25°51' W 079°44'816.3
2017-Nov-19 08:00N 25°57' W 079°50'816.7
2017-Nov-19 07:31N 26°03' W 079°57'815.4
2017-Nov-19 07:00N 26°06' W 080°05'2 4.5
2017-Nov-19 06:30N 26°04' W 080°07'0 0.2
2017-Nov-19 05:49N 26°04' W 080°07'0 0.0
2017-Nov-19 05:19N 26°04' W 080°07'0 0.0
2017-Nov-19 04:49N 26°04' W 080°07'0 0.0
2017-Nov-19 04:22N 26°04' W 080°07'0 0.0
2017-Nov-19 03:52N 26°04' W 080°07'0 0.2
2017-Nov-19 03:31N 26°04' W 080°07'2 4.0
2017-Nov-19 03:01N 26°06' W 080°05'3 6.6
2017-Nov-19 02:31N 26°06' W 080°01'1 2.5
2017-Nov-19 02:00N 26°07' W 080°01'4 7.4
2017-Nov-19 01:31N 26°10' W 079°60'611.3
2017-Nov-19 01:00N 26°16' W 079°58'611.0
2017-Nov-19 00:30N 26°21' W 079°57'612.4
2017-Nov-19 00:00N 26°27' W 079°54'815.7
2017-Nov-18 23:30N 26°34' W 079°52'815.8
2017-Nov-18 23:00N 26°42' W 079°49'815.8
2017-Nov-18 22:30N 26°50' W 079°47'915.7
2017-Nov-18 21:57N 26°58' W 079°44'29615.4
2017-Nov-18 02:45N 31°51' W 080°30'2 9.6
2017-Nov-18 02:30N 31°52' W 080°32'5 9.6
2017-Nov-18 02:00N 31°55' W 080°37'5 9.6
2017-Nov-18 01:30N 31°57' W 080°42'611.5
2017-Nov-18 01:01N 32°00' W 080°48'612.1
2017-Nov-18 00:30N 32°02' W 080°55'5 9.4
2017-Nov-18 00:00N 32°05' W 080°59'3 6.1
2017-Nov-17 23:30N 32°05' W 081°03'3 6.4
2017-Nov-17 23:00N 32°06' W 081°06'2 4.0
2017-Nov-17 22:30N 32°07' W 081°08'0 0.0
2017-Nov-17 21:45N 32°07' W 081°08'0 0.0
2017-Nov-17 21:27N 32°07' W 081°08'0 0.0
2017-Nov-17 20:51N 32°07' W 081°08'0 0.0
2017-Nov-17 20:27N 32°07' W 081°08'0 0.0
2017-Nov-17 19:57N 32°07' W 081°08'0 0.0
2017-Nov-17 19:27N 32°07' W 081°08'0 0.0
2017-Nov-17 18:57N 32°07' W 081°08'0 0.0
2017-Nov-17 18:27N 32°07' W 081°08'0 0.0
2017-Nov-17 17:57N 32°07' W 081°08'0 0.0
2017-Nov-17 17:27N 32°07' W 081°08'0 0.0
2017-Nov-17 16:57N 32°07' W 081°08'0 0.0
2017-Nov-17 16:27N 32°07' W 081°08'0 0.0
2017-Nov-17 15:57N 32°07' W 081°08'0 0.0
2017-Nov-17 15:27N 32°07' W 081°08'0 0.0
2017-Nov-17 14:57N 32°07' W 081°08'0 0.0
2017-Nov-17 14:21N 32°07' W 081°08'0 0.0
2017-Nov-17 13:57N 32°07' W 081°08'0 0.0
2017-Nov-17 13:21N 32°07' W 081°08'0 0.0
2017-Nov-17 12:57N 32°07' W 081°08'0 0.0
2017-Nov-17 12:27N 32°07' W 081°08'0 0.0
2017-Nov-17 11:57N 32°07' W 081°08'0 0.0
2017-Nov-17 11:21N 32°07' W 081°08'0 0.0
2017-Nov-17 10:57N 32°07' W 081°08'0 0.2
2017-Nov-17 10:30N 32°07' W 081°08'0 0.3
2017-Nov-17 10:00N 32°07' W 081°08'2 4.6
2017-Nov-17 09:30N 32°05' W 081°06'3 5.4
2017-Nov-17 09:00N 32°05' W 081°03'3 6.4
2017-Nov-17 08:30N 32°05' W 080°59'611.3
2017-Nov-17 08:00N 32°02' W 080°53'612.5
2017-Nov-17 07:30N 31°60' W 080°47'510.7
2017-Nov-17 07:00N 31°57' W 080°41'3 6.4
2017-Nov-17 06:30N 31°57' W 080°37'3 5.9
2017-Nov-17 06:00N 31°57' W 080°34'0 0.5
2017-Nov-17 05:30N 31°56' W 080°34'1 2.2
2017-Nov-17 05:00N 31°56' W 080°33'3 5.7
2017-Nov-17 04:30N 31°56' W 080°29'3 5.6
2017-Nov-17 04:00N 31°56' W 080°26'5 5.4
2017-Nov-17 03:04N 31°57' W 080°20'0 5.3
2017-Nov-17 02:59N 31°57' W 080°20'107 8.3
2017-Nov-16 14:07N 32°54' W 078°33'2 9.9
2017-Nov-16 13:55N 32°56' W 078°31'410.0
2017-Nov-16 13:30N 32°59' W 078°28'5 9.9
2017-Nov-16 13:00N 33°02' W 078°24'7210.3
2017-Nov-16 05:59N 34°11' W 077°57'261 6.3
2017-Nov-14 12:18N 37°36' W 074°39'415.2
2017-Nov-14 12:01N 37°41' W 074°39'815.1
2017-Nov-14 11:30N 37°48' W 074°39'815.0
2017-Nov-14 11:00N 37°56' W 074°39'815.0
2017-Nov-14 10:30N 38°03' W 074°39'714.8
2017-Nov-14 10:00N 38°11' W 074°41'714.7
2017-Nov-14 09:31N 38°18' W 074°42'714.6
2017-Nov-14 09:00N 38°25' W 074°43'714.0
2017-Nov-14 08:30N 38°31' W 074°48'611.0
2017-Nov-14 08:00N 38°36' W 074°52'5 9.6
2017-Nov-14 07:30N 38°40' W 074°55'5 9.6
2017-Nov-14 07:01N 38°43' W 074°59'4 8.0
2017-Nov-14 06:30N 38°46' W 075°02'4 8.0
2017-Nov-14 06:00N 38°50' W 075°05'713.5
2017-Nov-14 05:31N 38°57' W 075°07'816.5
2017-Nov-14 05:01N 39°04' W 075°11'917.1
2017-Nov-14 04:31N 39°11' W 075°17'917.7
2017-Nov-14 04:01N 39°18' W 075°23'917.7
2017-Nov-14 03:30N 39°25' W 075°31'714.2
2017-Nov-14 03:00N 39°32' W 075°33'612.3
2017-Nov-14 02:30N 39°38' W 075°34'612.5
2017-Nov-14 02:01N 39°44' W 075°30'510.8
2017-Nov-14 01:30N 39°48' W 075°26'4 8.6
2017-Nov-14 01:00N 39°50' W 075°21'5 9.9
2017-Nov-14 00:30N 39°51' W 075°15'3 6.9
2017-Nov-14 00:01N 39°53' W 075°11'2 4.9
2017-Nov-13 23:31N 39°54' W 075°08'0 0.2
2017-Nov-13 22:58N 39°54' W 075°08'0 0.0
2017-Nov-13 22:28N 39°54' W 075°08'0 0.0
2017-Nov-13 21:58N 39°54' W 075°08'71 3.6
2017-Nov-13 02:00N 38°44' W 074°52'0 0.4
2017-Nov-13 01:29N 38°44' W 074°52'2 5.2
2017-Nov-13 01:00N 38°41' W 074°51'8 6.1
2017-Nov-12 23:43N 38°36' W 074°44'0 0.6
2017-Nov-12 23:27N 38°36' W 074°44'0 0.8
2017-Nov-12 23:00N 38°36' W 074°44'0 0.5
2017-Nov-12 22:29N 38°36' W 074°44'0 0.8
2017-Nov-12 22:00N 38°36' W 074°44'2 4.6
2017-Nov-12 21:27N 38°34' W 074°44'3 7.0
2017-Nov-12 21:00N 38°31' W 074°42'6 7.9
2017-Nov-12 20:15N 38°27' W 074°37'0 0.5
2017-Nov-12 19:38N 38°27' W 074°37'0 0.4
2017-Nov-12 19:30N 38°27' W 074°37'1 2.1
2017-Nov-12 19:00N 38°26' W 074°36'4 7.9
2017-Nov-12 18:28N 38°22' W 074°35'4 7.8
2017-Nov-12 18:00N 38°19' W 074°34'0 0.6
2017-Nov-12 17:28N 38°19' W 074°34'0 0.7
2017-Nov-12 17:00N 38°19' W 074°34'0 0.7
2017-Nov-12 16:30N 38°19' W 074°34'1 0.6
2017-Nov-12 14:56N 38°20' W 074°34'0 0.4
2017-Nov-12 14:01N 38°21' W 074°34'0 0.7
2017-Nov-12 13:57N 38°21' W 074°34'0 0.5
2017-Nov-12 13:08N 38°21' W 074°33'0 0.4
2017-Nov-12 12:55N 38°21' W 074°33'1 2.2
2017-Nov-12 12:30N 38°20' W 074°34'5 7.0
2017-Nov-12 11:48N 38°15' W 074°36'2 7.2
2017-Nov-12 11:30N 38°13' W 074°37'7 7.3
2017-Nov-12 10:31N 38°07' W 074°42'0 7.6
2017-Nov-12 10:30N 38°07' W 074°42'510.2
2017-Nov-12 10:00N 38°03' W 074°45'611.2
2017-Nov-12 09:30N 37°58' W 074°48'611.0
2017-Nov-12 08:58N 37°53' W 074°52'511.1
2017-Nov-12 08:30N 37°48' W 074°54'1311.1
2017-Nov-12 07:22N 37°36' W 075°02'56 8.9
2017-Nov-12 01:04N 36°57' W 075°51'0 7.0
2017-Nov-12 01:00N 36°56' W 075°51'4 7.7
2017-Nov-12 00:30N 36°56' W 075°56'3 6.9
2017-Nov-12 00:00N 36°57' W 076°00'611.5
2017-Nov-11 23:30N 36°59' W 076°07'915.3
2017-Nov-11 22:54N 36°59' W 076°19'410.7
2017-Nov-11 22:30N 36°55' W 076°20'4 7.7
2017-Nov-11 22:00N 36°51' W 076°20'0 0.4
2017-Nov-11 21:30N 36°51' W 076°20'0 0.0
2017-Nov-11 20:59N 36°51' W 076°20'0 0.0
2017-Nov-11 20:29N 36°51' W 076°20'0 0.0
2017-Nov-11 19:59N 36°51' W 076°20'0 0.0
2017-Nov-11 19:26N 36°51' W 076°20'0 0.0
2017-Nov-11 18:56N 36°51' W 076°20'0 0.0
2017-Nov-11 18:29N 36°51' W 076°20'0 0.0
2017-Nov-11 17:59N 36°51' W 076°20'0 0.0
2017-Nov-11 17:29N 36°51' W 076°20'0 0.0
2017-Nov-11 16:59N 36°51' W 076°20'0 0.0
2017-Nov-11 16:23N 36°51' W 076°20'0 0.0
2017-Nov-11 15:59N 36°51' W 076°20'0 0.0
2017-Nov-11 15:29N 36°51' W 076°20'0 0.0
2017-Nov-11 14:56N 36°51' W 076°20'0 0.0
2017-Nov-11 14:29N 36°51' W 076°20'0 0.0
2017-Nov-11 13:59N 36°51' W 076°20'0 0.0
2017-Nov-11 13:29N 36°51' W 076°20'0 0.0
2017-Nov-11 12:59N 36°51' W 076°20'0 0.0
2017-Nov-11 12:29N 36°51' W 076°20'0 0.0
2017-Nov-11 11:59N 36°51' W 076°20'0 0.0
2017-Nov-11 11:29N 36°51' W 076°20'0 0.0
2017-Nov-11 10:59N 36°51' W 076°20'0 0.0
2017-Nov-11 10:30N 36°51' W 076°20'1 1.5
2017-Nov-11 10:00N 36°52' W 076°20'4 8.8
2017-Nov-11 09:30N 36°57' W 076°20'611.1
2017-Nov-11 09:00N 37°01' W 076°16'816.6
2017-Nov-11 08:30N 36°58' W 076°05'713.3
2017-Nov-11 08:00N 36°57' W 075°57'5 9.3
2017-Nov-11 07:30N 36°54' W 075°53'3 6.5
2017-Nov-11 07:00N 36°52' W 075°50'3 5.7
2017-Nov-11 06:26N 36°50' W 075°46'191 5.8
2017-Nov-09 21:32N 34°11' W 077°57'0 6.3
2017-Nov-09 21:30N 34°12' W 077°57'0 0.0
2017-Nov-09 16:44N 34°11' W 077°57'  
Track history (hours):
 
Tides and Currents Weather Stations Pressure Air Temp Water Temp Dewpoint Dewpoint Depression Visibility Wind Speed Wind Dir Waves Ship Positions

Maersk Wolfsburg

Last reported at 2017-Nov-19 09:36 UTC. Time now 2017-Nov-19 18:19 UTC.
Position N 25°37' W 079°32'.

Length 175 m; draft 8.6 m.

Type: Ship (hazmat cat A). MMSI: 477742500.

Date/timePositionNaut miles runAvg speedWind from/ knotsBaromVisibWave heightAir tempDewpointWater temp
2017-Nov-19 09:36N 25°37' W 079°32'217.2
2017-Nov-19 09:30N 25°39' W 079°32'815.6
2017-Nov-19 09:00N 25°45' W 079°37'917.4
2017-Nov-19 08:30N 25°51' W 079°44'816.3
2017-Nov-19 08:00N 25°57' W 079°50'816.7
2017-Nov-19 07:31N 26°03' W 079°57'815.4
2017-Nov-19 07:00N 26°06' W 080°05'2 4.5
2017-Nov-19 06:30N 26°04' W 080°07'0 0.2
2017-Nov-19 05:49N 26°04' W 080°07'0 0.0
2017-Nov-19 05:19N 26°04' W 080°07'0 0.0
2017-Nov-19 04:49N 26°04' W 080°07'0 0.0
2017-Nov-19 04:22N 26°04' W 080°07'0 0.0
2017-Nov-19 03:52N 26°04' W 080°07'0 0.2
2017-Nov-19 03:31N 26°04' W 080°07'2 4.0
2017-Nov-19 03:01N 26°06' W 080°05'3 6.6
2017-Nov-19 02:31N 26°06' W 080°01'1 2.5
2017-Nov-19 02:00N 26°07' W 080°01'4 7.4
2017-Nov-19 01:31N 26°10' W 079°60'611.3
2017-Nov-19 01:00N 26°16' W 079°58'611.0
2017-Nov-19 00:30N 26°21' W 079°57'612.4
2017-Nov-19 00:00N 26°27' W 079°54'815.7
2017-Nov-18 23:30N 26°34' W 079°52'815.8
2017-Nov-18 23:00N 26°42' W 079°49'815.8
2017-Nov-18 22:30N 26°50' W 079°47'915.7
2017-Nov-18 21:57N 26°58' W 079°44'29615.4
2017-Nov-18 02:45N 31°51' W 080°30'2 9.6
2017-Nov-18 02:30N 31°52' W 080°32'5 9.6
2017-Nov-18 02:00N 31°55' W 080°37'5 9.6
2017-Nov-18 01:30N 31°57' W 080°42'611.5
2017-Nov-18 01:01N 32°00' W 080°48'612.1
2017-Nov-18 00:30N 32°02' W 080°55'5 9.4
2017-Nov-18 00:00N 32°05' W 080°59'3 6.1
2017-Nov-17 23:30N 32°05' W 081°03'3 6.4
2017-Nov-17 23:00N 32°06' W 081°06'2 4.0
2017-Nov-17 22:30N 32°07' W 081°08'0 0.0
2017-Nov-17 21:45N 32°07' W 081°08'0 0.0
2017-Nov-17 21:27N 32°07' W 081°08'0 0.0
2017-Nov-17 20:51N 32°07' W 081°08'0 0.0
2017-Nov-17 20:27N 32°07' W 081°08'0 0.0
2017-Nov-17 19:57N 32°07' W 081°08'0 0.0
2017-Nov-17 19:27N 32°07' W 081°08'0 0.0
2017-Nov-17 18:57N 32°07' W 081°08'0 0.0
2017-Nov-17 18:27N 32°07' W 081°08'0 0.0
2017-Nov-17 17:57N 32°07' W 081°08'0 0.0
2017-Nov-17 17:27N 32°07' W 081°08'0 0.0
2017-Nov-17 16:57N 32°07' W 081°08'0 0.0
2017-Nov-17 16:27N 32°07' W 081°08'0 0.0
2017-Nov-17 15:57N 32°07' W 081°08'0 0.0
2017-Nov-17 15:27N 32°07' W 081°08'0 0.0
2017-Nov-17 14:57N 32°07' W 081°08'0 0.0
2017-Nov-17 14:21N 32°07' W 081°08'0 0.0
2017-Nov-17 13:57N 32°07' W 081°08'0 0.0
2017-Nov-17 13:21N 32°07' W 081°08'0 0.0
2017-Nov-17 12:57N 32°07' W 081°08'0 0.0
2017-Nov-17 12:27N 32°07' W 081°08'0 0.0
2017-Nov-17 11:57N 32°07' W 081°08'0 0.0
2017-Nov-17 11:21N 32°07' W 081°08'0 0.0
2017-Nov-17 10:57N 32°07' W 081°08'0 0.2
2017-Nov-17 10:30N 32°07' W 081°08'0 0.3
2017-Nov-17 10:00N 32°07' W 081°08'2 4.6
2017-Nov-17 09:30N 32°05' W 081°06'3 5.4
2017-Nov-17 09:00N 32°05' W 081°03'3 6.4
2017-Nov-17 08:30N 32°05' W 080°59'611.3
2017-Nov-17 08:00N 32°02' W 080°53'612.5
2017-Nov-17 07:30N 31°60' W 080°47'510.7
2017-Nov-17 07:00N 31°57' W 080°41'3 6.4
2017-Nov-17 06:30N 31°57' W 080°37'3 5.9
2017-Nov-17 06:00N 31°57' W 080°34'0 0.5
2017-Nov-17 05:30N 31°56' W 080°34'1 2.2
2017-Nov-17 05:00N 31°56' W 080°33'3 5.7
2017-Nov-17 04:30N 31°56' W 080°29'3 5.6
2017-Nov-17 04:00N 31°56' W 080°26'5 5.4
2017-Nov-17 03:04N 31°57' W 080°20'0 5.3
2017-Nov-17 02:59N 31°57' W 080°20'107 8.3
2017-Nov-16 14:07N 32°54' W 078°33'2 9.9
2017-Nov-16 13:55N 32°56' W 078°31'410.0
2017-Nov-16 13:30N 32°59' W 078°28'5 9.9
2017-Nov-16 13:00N 33°02' W 078°24'7210.3
2017-Nov-16 05:59N 34°11' W 077°57'261 6.3
2017-Nov-14 12:18N 37°36' W 074°39'415.2
2017-Nov-14 12:01N 37°41' W 074°39'815.1
2017-Nov-14 11:30N 37°48' W 074°39'815.0
2017-Nov-14 11:00N 37°56' W 074°39'815.0
2017-Nov-14 10:30N 38°03' W 074°39'714.8
2017-Nov-14 10:00N 38°11' W 074°41'714.7
2017-Nov-14 09:31N 38°18' W 074°42'714.6
2017-Nov-14 09:00N 38°25' W 074°43'714.0
2017-Nov-14 08:30N 38°31' W 074°48'611.0
2017-Nov-14 08:00N 38°36' W 074°52'5 9.6
2017-Nov-14 07:30N 38°40' W 074°55'5 9.6
2017-Nov-14 07:01N 38°43' W 074°59'4 8.0
2017-Nov-14 06:30N 38°46' W 075°02'4 8.0
2017-Nov-14 06:00N 38°50' W 075°05'713.5
2017-Nov-14 05:31N 38°57' W 075°07'816.5
2017-Nov-14 05:01N 39°04' W 075°11'917.1
2017-Nov-14 04:31N 39°11' W 075°17'917.7
2017-Nov-14 04:01N 39°18' W 075°23'917.7
2017-Nov-14 03:30N 39°25' W 075°31'714.2
2017-Nov-14 03:00N 39°32' W 075°33'612.3
2017-Nov-14 02:30N 39°38' W 075°34'612.5
2017-Nov-14 02:01N 39°44' W 075°30'510.8
2017-Nov-14 01:30N 39°48' W 075°26'4 8.6
2017-Nov-14 01:00N 39°50' W 075°21'5 9.9
2017-Nov-14 00:30N 39°51' W 075°15'3 6.9
2017-Nov-14 00:01N 39°53' W 075°11'2 4.9
2017-Nov-13 23:31N 39°54' W 075°08'0 0.2
2017-Nov-13 22:58N 39°54' W 075°08'0 0.0
2017-Nov-13 22:28N 39°54' W 075°08'0 0.0
2017-Nov-13 21:58N 39°54' W 075°08'71 3.6
2017-Nov-13 02:00N 38°44' W 074°52'0 0.4
2017-Nov-13 01:29N 38°44' W 074°52'2 5.2
2017-Nov-13 01:00N 38°41' W 074°51'8 6.1
2017-Nov-12 23:43N 38°36' W 074°44'0 0.6
2017-Nov-12 23:27N 38°36' W 074°44'0 0.8
2017-Nov-12 23:00N 38°36' W 074°44'0 0.5
2017-Nov-12 22:29N 38°36' W 074°44'0 0.8
2017-Nov-12 22:00N 38°36' W 074°44'2 4.6
2017-Nov-12 21:27N 38°34' W 074°44'3 7.0
2017-Nov-12 21:00N 38°31' W 074°42'6 7.9
2017-Nov-12 20:15N 38°27' W 074°37'0 0.5
2017-Nov-12 19:38N 38°27' W 074°37'0 0.4
2017-Nov-12 19:30N 38°27' W 074°37'1 2.1
2017-Nov-12 19:00N 38°26' W 074°36'4 7.9
2017-Nov-12 18:28N 38°22' W 074°35'4 7.8
2017-Nov-12 18:00N 38°19' W 074°34'0 0.6
2017-Nov-12 17:28N 38°19' W 074°34'0 0.7
2017-Nov-12 17:00N 38°19' W 074°34'0 0.7
2017-Nov-12 16:30N 38°19' W 074°34'1 0.6
2017-Nov-12 14:56N 38°20' W 074°34'0 0.4
2017-Nov-12 14:01N 38°21' W 074°34'0 0.7
2017-Nov-12 13:57N 38°21' W 074°34'0 0.5
2017-Nov-12 13:08N 38°21' W 074°33'0 0.4
2017-Nov-12 12:55N 38°21' W 074°33'1 2.2
2017-Nov-12 12:30N 38°20' W 074°34'5 7.0
2017-Nov-12 11:48N 38°15' W 074°36'2 7.2
2017-Nov-12 11:30N 38°13' W 074°37'7 7.3
2017-Nov-12 10:31N 38°07' W 074°42'0 7.6
2017-Nov-12 10:30N 38°07' W 074°42'510.2
2017-Nov-12 10:00N 38°03' W 074°45'611.2
2017-Nov-12 09:30N 37°58' W 074°48'611.0
2017-Nov-12 08:58N 37°53' W 074°52'511.1
2017-Nov-12 08:30N 37°48' W 074°54'1311.1
2017-Nov-12 07:22N 37°36' W 075°02'56 8.9
2017-Nov-12 01:04N 36°57' W 075°51'0 7.0
2017-Nov-12 01:00N 36°56' W 075°51'4 7.7
2017-Nov-12 00:30N 36°56' W 075°56'3 6.9
2017-Nov-12 00:00N 36°57' W 076°00'611.5
2017-Nov-11 23:30N 36°59' W 076°07'915.3
2017-Nov-11 22:54N 36°59' W 076°19'410.7
2017-Nov-11 22:30N 36°55' W 076°20'4 7.7
2017-Nov-11 22:00N 36°51' W 076°20'0 0.4
2017-Nov-11 21:30N 36°51' W 076°20'0 0.0
2017-Nov-11 20:59N 36°51' W 076°20'0 0.0
2017-Nov-11 20:29N 36°51' W 076°20'0 0.0
2017-Nov-11 19:59N 36°51' W 076°20'0 0.0
2017-Nov-11 19:26N 36°51' W 076°20'0 0.0
2017-Nov-11 18:56N 36°51' W 076°20'0 0.0
2017-Nov-11 18:29N 36°51' W 076°20'0 0.0
2017-Nov-11 17:59N 36°51' W 076°20'0 0.0
2017-Nov-11 17:29N 36°51' W 076°20'0 0.0
2017-Nov-11 16:59N 36°51' W 076°20'0 0.0
2017-Nov-11 16:23N 36°51' W 076°20'0 0.0
2017-Nov-11 15:59N 36°51' W 076°20'0 0.0
2017-Nov-11 15:29N 36°51' W 076°20'0 0.0
2017-Nov-11 14:56N 36°51' W 076°20'0 0.0
2017-Nov-11 14:29N 36°51' W 076°20'0 0.0
2017-Nov-11 13:59N 36°51' W 076°20'0 0.0
2017-Nov-11 13:29N 36°51' W 076°20'0 0.0
2017-Nov-11 12:59N 36°51' W 076°20'0 0.0
2017-Nov-11 12:29N 36°51' W 076°20'0 0.0
2017-Nov-11 11:59N 36°51' W 076°20'0 0.0
2017-Nov-11 11:29N 36°51' W 076°20'0 0.0
2017-Nov-11 10:59N 36°51' W 076°20'0 0.0
2017-Nov-11 10:30N 36°51' W 076°20'1 1.5
2017-Nov-11 10:00N 36°52' W 076°20'4 8.8
2017-Nov-11 09:30N 36°57' W 076°20'611.1
2017-Nov-11 09:00N 37°01' W 076°16'816.6
2017-Nov-11 08:30N 36°58' W 076°05'713.3
2017-Nov-11 08:00N 36°57' W 075°57'5 9.3
2017-Nov-11 07:30N 36°54' W 075°53'3 6.5
2017-Nov-11 07:00N 36°52' W 075°50'3 5.7
2017-Nov-11 06:26N 36°50' W 075°46'191 5.8
2017-Nov-09 21:32N 34°11' W 077°57'0 6.3
2017-Nov-09 21:30N 34°12' W 077°57'0 0.0
2017-Nov-09 16:44N 34°11' W 077°57'  

Dump ship's entire track history